createdAt,value
2022-11-17T00:00:43.513Z,99004.94
2022-11-17T00:01:50.931Z,99002.03
2022-11-17T00:02:54.428Z,99002.78
2022-11-17T00:03:56.591Z,99004.38
2022-11-17T00:04:58.943Z,99009.91
2022-11-17T00:06:06.008Z,99017.75
2022-11-17T00:07:08.402Z,99016.69
2022-11-17T00:08:10.773Z,99018.84
2022-11-17T00:09:20.503Z,99020.00
2022-11-17T00:10:22.837Z,99008.81
2022-11-17T00:11:25.138Z,99009.47
2022-11-17T00:12:46.082Z,99009.47
2022-11-17T00:14:06.901Z,99013.25
2022-11-17T00:15:09.429Z,99007.84
2022-11-17T00:16:15.953Z,99004.53
2022-11-17T00:17:18.385Z,99010.19
2022-11-17T00:18:39.357Z,99002.72
2022-11-17T00:20:00.363Z,99002.38
2022-11-17T00:21:19.993Z,98997.09
2022-11-17T00:22:22.915Z,99002.78
2022-11-17T00:23:25.385Z,99002.03
2022-11-17T00:24:32.999Z,98998.97
2022-11-17T00:25:35.360Z,98998.63
2022-11-17T00:27:00.703Z,98992.91
2022-11-17T00:28:03.675Z,98995.97
2022-11-17T00:29:06.610Z,98995.97
2022-11-17T00:30:09.280Z,98988.41
2022-11-17T00:31:31.568Z,98991.78
2022-11-17T00:32:52.299Z,98988.06
2022-11-17T00:34:07.613Z,98984.66
2022-11-17T00:35:09.882Z,98988.06
2022-11-17T00:36:12.290Z,98994.41
2022-11-17T00:37:15.720Z,98984.59
2022-11-17T00:38:18.100Z,98980.22
2022-11-17T00:39:22.267Z,98977.25
2022-11-17T00:40:24.408Z,98984.69
2022-11-17T00:41:26.903Z,98978.78
2022-11-17T00:42:29.154Z,98976.91
2022-11-17T00:43:31.545Z,98980.22
2022-11-17T00:44:34.523Z,98971.53
2022-11-17T00:45:36.854Z,98964.09
2022-11-17T00:46:39.764Z,98968.94
2022-11-17T00:47:43.354Z,98968.13
2022-11-17T00:48:45.781Z,98963.97
2022-11-17T00:49:48.128Z,98961.41
2022-11-17T00:50:50.427Z,98960.50
2022-11-17T00:51:54.154Z,98954.22
2022-11-17T00:52:56.428Z,98962.88
2022-11-17T00:53:58.856Z,98963.63
2022-11-17T00:55:01.264Z,98956.78
2022-11-17T00:56:03.695Z,98956.34
2022-11-17T00:57:06.072Z,98954.84
2022-11-17T00:58:11.656Z,98944.81
2022-11-17T00:59:14.675Z,98953.47
2022-11-17T01:00:17.548Z,98950.09
2022-11-17T01:01:20.288Z,98951.94
2022-11-17T01:02:22.729Z,98955.97
2022-11-17T01:03:25.060Z,98954.03
2022-11-17T01:04:27.636Z,98960.50
2022-11-17T01:05:33.300Z,98961.63
2022-11-17T01:06:38.603Z,98959.00
2022-11-17T01:07:41.033Z,98960.50
2022-11-17T01:08:44.009Z,98965.03
2022-11-17T01:09:46.382Z,98957.88
2022-11-17T01:10:48.744Z,98955.97
2022-11-17T01:11:53.034Z,98962.44
2022-11-17T01:12:55.237Z,98961.63
2022-11-17T01:14:00.016Z,98955.97
2022-11-17T01:15:02.418Z,98954.16
2022-11-17T01:16:08.735Z,98960.50
2022-11-17T01:17:11.203Z,98959.16
2022-11-17T01:18:13.675Z,98952.78
2022-11-17T01:19:17.174Z,98950.00
2022-11-17T01:20:19.977Z,98946.94
2022-11-17T01:21:24.882Z,98950.09
2022-11-17T01:22:27.196Z,98940.22
2022-11-17T01:23:29.764Z,98948.91
2022-11-17T01:24:32.626Z,98947.09
2022-11-17T01:25:35.226Z,98939.47
2022-11-17T01:26:40.051Z,98942.09
2022-11-17T01:27:42.624Z,98941.00
2022-11-17T01:28:45.235Z,98944.00
2022-11-17T01:29:48.074Z,98940.31
2022-11-17T01:30:50.376Z,98939.25
2022-11-17T01:31:52.843Z,98931.94
2022-11-17T01:32:55.423Z,98936.44
2022-11-17T01:33:58.054Z,98930.06
2022-11-17T01:35:00.341Z,98934.19
2022-11-17T01:36:04.907Z,98929.69
2022-11-17T01:37:21.574Z,98927.81
2022-11-17T01:38:23.828Z,98924.47
2022-11-17T01:39:27.660Z,98933.13
2022-11-17T01:40:30.030Z,98932.09
2022-11-17T01:41:32.384Z,98934.56
2022-11-17T01:42:34.690Z,98933.19
2022-11-17T01:43:39.883Z,98934.22
2022-11-17T01:44:42.158Z,98937.34
2022-11-17T01:45:44.866Z,98930.97
2022-11-17T01:46:47.291Z,98929.72
2022-11-17T01:47:59.742Z,98927.59
2022-11-17T01:49:11.393Z,98937.28
2022-11-17T01:50:32.217Z,98932.09
2022-11-17T01:51:37.029Z,98938.44
2022-11-17T01:52:41.156Z,98930.25
2022-11-17T01:53:45.454Z,98932.53
2022-11-17T01:54:49.052Z,98929.09
2022-11-17T01:55:56.362Z,98936.50
2022-11-17T01:57:03.292Z,98930.50
2022-11-17T01:58:13.485Z,98924.19
2022-11-17T01:59:30.403Z,98936.28
2022-11-17T02:00:32.705Z,98926.84
2022-11-17T02:01:35.124Z,98930.22
2022-11-17T02:02:40.036Z,98925.41
2022-11-17T02:03:44.660Z,98924.22
2022-11-17T02:04:54.601Z,98921.16
2022-11-17T02:06:11.843Z,98922.03
2022-11-17T02:07:27.424Z,98918.22
2022-11-17T02:08:33.008Z,98921.56
2022-11-17T02:09:39.173Z,98915.66
2022-11-17T02:10:47.120Z,98923.47
2022-11-17T02:11:53.276Z,98924.66
2022-11-17T02:12:55.582Z,98916.00
2022-11-17T02:13:57.994Z,98911.84
2022-11-17T02:15:01.375Z,98903.56
2022-11-17T02:16:05.022Z,98909.94
2022-11-17T02:17:14.265Z,98908.94
2022-11-17T02:18:17.860Z,98907.75
2022-11-17T02:19:22.581Z,98903.63
2022-11-17T02:20:31.892Z,98913.72
2022-11-17T02:21:57.507Z,98905.81
2022-11-17T02:23:20.438Z,98909.28
2022-11-17T02:24:34.815Z,98912.38
2022-11-17T02:25:43.300Z,98906.31
2022-11-17T02:26:57.695Z,98913.72
2022-11-17T02:28:09.109Z,98914.59
2022-11-17T02:29:37.753Z,98917.59
2022-11-17T02:31:15.580Z,98908.94
2022-11-17T02:32:28.910Z,98907.81
2022-11-17T02:34:00.154Z,98910.78
2022-11-17T02:35:19.880Z,98911.16
2022-11-17T02:36:31.510Z,98912.78
2022-11-17T02:37:43.847Z,98915.66
2022-11-17T02:39:25.551Z,98904.47
2022-11-17T02:41:05.353Z,98914.97
2022-11-17T02:42:14.206Z,98914.53
2022-11-17T02:43:43.464Z,98912.25
2022-11-17T02:44:55.422Z,98914.53
2022-11-17T02:46:11.838Z,98913.84
2022-11-17T02:47:29.631Z,98914.59
2022-11-17T02:48:37.400Z,98914.97
2022-11-17T02:49:46.277Z,98917.16
2022-11-17T02:50:50.024Z,98919.78
2022-11-17T02:51:55.744Z,98925.50
2022-11-17T02:52:58.386Z,98918.28
2022-11-17T02:54:01.745Z,98918.28
2022-11-17T02:55:12.642Z,98918.63
2022-11-17T02:56:14.925Z,98928.16
2022-11-17T02:57:35.224Z,98925.19
2022-11-17T02:58:37.686Z,98925.06
2022-11-17T02:59:47.677Z,98928.47
2022-11-17T03:00:59.067Z,98929.63
2022-11-17T03:02:28.936Z,98922.09
2022-11-17T03:03:46.564Z,98923.25
2022-11-17T03:05:00.568Z,98925.53
2022-11-17T03:06:24.072Z,98925.50
2022-11-17T03:07:45.285Z,98931.84
2022-11-17T03:09:04.339Z,98931.09
2022-11-17T03:10:35.841Z,98926.16
2022-11-17T03:12:12.485Z,98930.00
2022-11-17T03:13:42.823Z,98928.16
2022-11-17T03:15:01.018Z,98934.91
2022-11-17T03:16:19.104Z,98929.97
2022-11-17T03:17:29.214Z,98931.03
2022-11-17T03:18:58.529Z,98923.88
2022-11-17T03:20:12.582Z,98926.16
2022-11-17T03:21:23.569Z,98925.78
2022-11-17T03:22:43.129Z,98937.47
2022-11-17T03:23:51.337Z,98930.31
2022-11-17T03:25:01.753Z,98927.00
2022-11-17T03:26:10.391Z,98927.28
2022-11-17T03:27:15.588Z,98929.91
2022-11-17T03:28:21.902Z,98924.22
2022-11-17T03:29:29.382Z,98923.53
2022-11-17T03:30:37.483Z,98921.75
2022-11-17T03:31:42.820Z,98930.75
2022-11-17T03:32:50.932Z,98923.53
2022-11-17T03:33:54.182Z,98922.78
2022-11-17T03:35:00.494Z,98929.91
2022-11-17T03:36:16.752Z,98924.66
2022-11-17T03:37:21.912Z,98912.63
2022-11-17T03:38:27.633Z,98910.41
2022-11-17T03:39:36.229Z,98918.78
2022-11-17T03:40:44.419Z,98918.63
2022-11-17T03:41:50.026Z,98915.66
2022-11-17T03:42:57.572Z,98920.56
2022-11-17T03:44:02.384Z,98916.44
2022-11-17T03:45:15.119Z,98912.63
2022-11-17T03:46:20.358Z,98916.34
2022-11-17T03:48:57.767Z,98908.88
2022-11-17T03:50:06.801Z,98913.81
2022-11-17T03:51:17.655Z,98908.81
2022-11-17T03:52:20.856Z,98903.56
2022-11-17T03:53:24.377Z,98916.34
2022-11-17T03:54:27.250Z,98916.34
2022-11-17T03:55:40.663Z,98917.44
2022-11-17T03:56:51.684Z,98913.81
2022-11-17T03:58:04.559Z,98920.50
2022-11-17T03:59:27.075Z,98913.34
2022-11-17T04:00:29.955Z,98916.16
2022-11-17T04:01:33.906Z,98911.84
2022-11-17T04:02:36.441Z,98916.06
2022-11-17T04:03:39.925Z,98916.84
2022-11-17T04:05:01.063Z,98917.16
2022-11-17T04:06:04.549Z,98914.81
2022-11-17T04:07:07.019Z,98909.72
2022-11-17T04:08:09.414Z,98914.53
2022-11-17T04:09:11.808Z,98914.19
2022-11-17T04:10:17.244Z,98914.47
2022-11-17T04:11:38.793Z,98913.03
2022-11-17T04:12:59.530Z,98909.56
2022-11-17T04:14:20.294Z,98917.88
2022-11-17T04:15:41.334Z,98913.34
2022-11-17T04:16:45.035Z,98917.44
2022-11-17T04:17:48.183Z,98914.06
2022-11-17T04:18:54.554Z,98912.56
2022-11-17T04:20:01.227Z,98914.44
2022-11-17T04:21:06.648Z,98918.59
2022-11-17T04:22:09.023Z,98918.59
2022-11-17T04:23:17.665Z,98925.34
2022-11-17T04:24:20.046Z,98920.84
2022-11-17T04:25:42.193Z,98932.84
2022-11-17T04:27:03.738Z,98931.16
2022-11-17T04:28:26.333Z,98931.84
2022-11-17T04:29:28.916Z,98929.09
2022-11-17T04:30:31.246Z,98930.56
2022-11-17T04:31:34.001Z,98941.13
2022-11-17T04:32:36.425Z,98934.75
2022-11-17T04:33:42.967Z,98933.59
2022-11-17T04:34:45.320Z,98935.47
2022-11-17T04:35:50.966Z,98940.75
2022-11-17T04:36:56.389Z,98932.41
2022-11-17T04:37:59.025Z,98932.41
2022-11-17T04:39:01.507Z,98935.06
2022-11-17T04:40:04.334Z,98927.88
2022-11-17T04:41:26.743Z,98928.94
2022-11-17T04:42:29.318Z,98937.69
2022-11-17T04:43:31.751Z,98936.16
2022-11-17T04:44:34.321Z,98933.94
2022-11-17T04:45:36.722Z,98939.19
2022-11-17T04:46:40.139Z,98941.47
2022-11-17T04:47:42.761Z,98937.34
2022-11-17T04:48:45.781Z,98943.38
2022-11-17T04:49:48.104Z,98942.94
2022-11-17T04:50:54.513Z,98940.75
2022-11-17T04:51:57.295Z,98933.19
2022-11-17T04:52:59.601Z,98944.13
2022-11-17T04:54:03.146Z,98932.41
2022-11-17T04:55:06.125Z,98938.13
2022-11-17T04:56:08.908Z,98935.13
2022-11-17T04:57:11.415Z,98944.88
2022-11-17T04:58:13.825Z,98937.00
2022-11-17T04:59:16.519Z,98938.50
2022-11-17T05:00:19.285Z,98940.38
2022-11-17T05:01:23.158Z,98939.63
2022-11-17T05:02:25.678Z,98945.63
2022-11-17T05:03:28.056Z,98942.63
2022-11-17T05:04:49.169Z,98947.16
2022-11-17T05:05:51.532Z,98943.38
2022-11-17T05:06:53.839Z,98937.75
2022-11-17T05:07:56.347Z,98939.63
2022-11-17T05:09:00.539Z,98937.38
2022-11-17T05:10:02.803Z,98941.81
2022-11-17T05:11:26.306Z,98935.47
2022-11-17T05:12:47.238Z,98941.81
2022-11-17T05:13:51.129Z,98939.97
2022-11-17T05:14:53.963Z,98949.38
2022-11-17T05:16:16.345Z,98945.22
2022-11-17T05:17:19.387Z,98940.31
2022-11-17T05:18:21.668Z,98948.91
2022-11-17T05:19:26.768Z,98944.06
2022-11-17T05:20:29.138Z,98949.19
2022-11-17T05:21:31.653Z,98943.19
2022-11-17T05:22:52.442Z,98947.94
2022-11-17T05:23:55.048Z,98936.69
2022-11-17T05:24:57.867Z,98941.50
2022-11-17T05:26:00.304Z,98946.81
2022-11-17T05:27:02.718Z,98943.00
2022-11-17T05:28:05.480Z,98949.44
2022-11-17T05:29:10.196Z,98944.09
2022-11-17T05:30:13.108Z,98946.00
2022-11-17T05:31:16.288Z,98946.81
2022-11-17T05:32:19.866Z,98950.56
2022-11-17T05:33:22.167Z,98952.78
2022-11-17T05:34:24.871Z,98952.38
2022-11-17T05:35:27.391Z,98946.00
2022-11-17T05:36:31.141Z,98956.59
2022-11-17T05:37:33.568Z,98961.06
2022-11-17T05:38:36.121Z,98961.06
2022-11-17T05:39:38.580Z,98964.78
2022-11-17T05:40:41.063Z,98961.75
2022-11-17T05:41:43.634Z,98967.00
2022-11-17T05:42:46.106Z,98967.41
2022-11-17T05:43:50.666Z,98969.53
2022-11-17T05:44:53.103Z,98975.19
2022-11-17T05:45:55.447Z,98974.25
2022-11-17T05:46:58.170Z,98963.25
2022-11-17T05:48:00.591Z,98964.84
2022-11-17T05:49:03.321Z,98962.28
2022-11-17T05:50:06.510Z,98972.13
2022-11-17T05:51:10.456Z,98967.00
2022-11-17T05:52:13.545Z,98964.41
2022-11-17T05:53:16.114Z,98959.88
2022-11-17T05:54:18.601Z,98965.19
2022-11-17T05:55:20.956Z,98960.25
2022-11-17T05:56:32.260Z,98966.34
2022-11-17T05:57:35.116Z,98961.44
2022-11-17T05:58:40.446Z,98960.78
2022-11-17T05:59:50.775Z,98965.25
2022-11-17T06:00:54.077Z,98962.63
2022-11-17T06:02:04.673Z,98977.84
2022-11-17T06:03:15.159Z,98968.78
2022-11-17T06:04:18.950Z,98970.78
2022-11-17T06:05:24.096Z,98974.88
2022-11-17T06:06:27.717Z,98972.25
2022-11-17T06:07:30.206Z,98987.72
2022-11-17T06:08:33.830Z,98974.91
2022-11-17T06:09:39.563Z,98979.84
2022-11-17T06:10:42.490Z,98983.56
2022-11-17T06:11:45.142Z,98976.88
2022-11-17T06:12:47.741Z,98979.56
2022-11-17T06:13:50.248Z,98975.81
2022-11-17T06:14:52.820Z,98989.16
2022-11-17T06:16:01.699Z,98989.94
2022-11-17T06:17:09.425Z,98990.69
2022-11-17T06:18:17.474Z,99000.75
2022-11-17T06:19:23.739Z,98991.25
2022-11-17T06:20:30.170Z,98997.56
2022-11-17T06:21:56.789Z,98993.88
2022-11-17T06:23:00.431Z,98994.00
2022-11-17T06:24:06.717Z,98995.09
2022-11-17T06:25:10.617Z,98997.66
2022-11-17T06:26:13.942Z,99001.41
2022-11-17T06:27:17.393Z,98996.38
2022-11-17T06:28:22.166Z,99002.44
2022-11-17T06:29:27.764Z,99013.09
2022-11-17T06:30:31.422Z,99009.84
2022-11-17T06:31:33.826Z,99003.19
2022-11-17T06:32:39.441Z,99005.34
2022-11-17T06:33:42.493Z,99007.50
2022-11-17T06:34:50.404Z,99005.56
2022-11-17T06:35:54.795Z,99004.69
2022-11-17T06:36:57.401Z,99006.16
2022-11-17T06:38:00.394Z,99009.47
2022-11-17T06:39:02.951Z,99006.34
2022-11-17T06:40:09.049Z,98997.78
2022-11-17T06:41:12.221Z,99003.03
2022-11-17T06:42:14.638Z,99004.69
2022-11-17T06:43:17.148Z,99016.41
2022-11-17T06:44:19.453Z,99006.09
2022-11-17T06:45:21.722Z,99009.53
2022-11-17T06:46:24.055Z,99009.22
2022-11-17T06:47:28.515Z,99008.94
2022-11-17T06:48:36.613Z,99010.13
2022-11-17T06:49:40.030Z,99010.47
2022-11-17T06:50:43.084Z,99014.78
2022-11-17T06:51:45.818Z,99020.91
2022-11-17T06:52:48.402Z,99016.69
2022-11-17T06:53:50.780Z,99023.53
2022-11-17T06:54:53.190Z,99024.81
2022-11-17T06:56:01.446Z,99022.34
2022-11-17T06:57:03.935Z,99019.28
2022-11-17T06:58:09.071Z,99023.09
2022-11-17T06:59:11.411Z,99020.19
2022-11-17T07:00:14.718Z,99023.94
2022-11-17T07:01:17.512Z,99026.63
2022-11-17T07:02:20.039Z,99023.38
2022-11-17T07:03:22.754Z,99022.75
2022-11-17T07:04:25.158Z,99021.72
2022-11-17T07:05:28.303Z,99023.59
2022-11-17T07:06:32.043Z,99021.34
2022-11-17T07:07:34.473Z,99019.59
2022-11-17T07:08:38.124Z,99022.91
2022-11-17T07:09:40.846Z,99017.28
2022-11-17T07:10:48.976Z,99019.91
2022-11-17T07:11:52.508Z,99022.09
2022-11-17T07:12:55.115Z,99021.47
2022-11-17T07:13:58.669Z,99030.72
2022-11-17T07:15:01.363Z,99030.56
2022-11-17T07:16:18.634Z,99027.16
2022-11-17T07:17:24.285Z,99015.53
2022-11-17T07:18:27.514Z,99024.59
2022-11-17T07:19:29.979Z,99023.53
2022-11-17T07:20:32.297Z,99023.53
2022-11-17T07:21:34.846Z,99025.63
2022-11-17T07:22:37.970Z,99027.22
2022-11-17T07:23:42.367Z,99024.16
2022-11-17T07:24:45.222Z,99024.44
2022-11-17T07:25:47.536Z,99022.09
2022-11-17T07:26:50.516Z,99026.25
2022-11-17T07:28:02.111Z,99027.91
2022-11-17T07:29:04.507Z,99023.72
2022-11-17T07:30:07.874Z,99025.47
2022-11-17T07:31:10.263Z,99022.91
2022-11-17T07:32:14.089Z,99029.34
2022-11-17T07:33:16.455Z,99038.31
2022-11-17T07:34:18.887Z,99038.94
2022-11-17T07:35:21.198Z,99033.34
2022-11-17T07:36:23.535Z,99050.22
2022-11-17T07:37:28.248Z,99043.50
2022-11-17T07:38:35.384Z,99045.78
2022-11-17T07:39:38.079Z,99039.41
2022-11-17T07:40:43.040Z,99040.19
2022-11-17T07:41:45.366Z,99050.25
2022-11-17T07:42:50.786Z,99042.38
2022-11-17T07:43:54.080Z,99046.56
2022-11-17T07:44:56.301Z,99041.38
2022-11-17T07:45:58.674Z,99048.91
2022-11-17T07:47:01.519Z,99045.72
2022-11-17T07:48:06.108Z,99040.69
2022-11-17T07:49:11.697Z,99046.56
2022-11-17T07:50:15.979Z,99041.78
2022-11-17T07:51:18.160Z,99045.78
2022-11-17T07:52:20.394Z,99042.03
2022-11-17T07:53:22.678Z,99041.66
2022-11-17T07:54:25.054Z,99040.47
2022-11-17T07:55:29.877Z,99037.63
2022-11-17T07:56:34.516Z,99048.38
2022-11-17T07:57:36.884Z,99040.28
2022-11-17T07:58:40.312Z,99036.03
2022-11-17T07:59:45.358Z,99045.19
2022-11-17T08:00:47.843Z,99037.72
2022-11-17T08:01:50.119Z,99039.25
2022-11-17T08:02:52.498Z,99032.94
2022-11-17T08:03:55.131Z,99028.88
2022-11-17T08:04:57.575Z,99032.63
2022-11-17T08:06:06.641Z,99038.28
2022-11-17T08:07:09.064Z,99033.03
2022-11-17T08:08:13.688Z,99035.91
2022-11-17T08:09:16.414Z,99039.78
2022-11-17T08:10:18.762Z,99037.09
2022-11-17T08:11:21.013Z,99040.50
2022-11-17T08:12:23.790Z,99032.34
2022-11-17T08:13:26.114Z,99042.97
2022-11-17T08:14:29.982Z,99043.81
2022-11-17T08:15:32.415Z,99033.47
2022-11-17T08:16:35.403Z,99037.47
2022-11-17T08:17:38.116Z,99038.00
2022-11-17T08:18:40.940Z,99039.47
2022-11-17T08:19:43.413Z,99035.78
2022-11-17T08:20:45.852Z,99030.19
2022-11-17T08:21:48.166Z,99039.72
2022-11-17T08:22:52.190Z,99044.63
2022-11-17T08:23:55.424Z,99049.09
2022-11-17T08:24:58.008Z,99049.22
2022-11-17T08:26:01.882Z,99045.41
2022-11-17T08:27:04.341Z,99046.19
2022-11-17T08:28:06.967Z,99053.03
2022-11-17T08:29:09.374Z,99059.53
2022-11-17T08:30:12.434Z,99054.19
2022-11-17T08:31:16.994Z,99047.19
2022-11-17T08:32:19.511Z,99051.69
2022-11-17T08:33:21.908Z,99059.94
2022-11-17T08:34:24.252Z,99065.97
2022-11-17T08:35:26.935Z,99063.44
2022-11-17T08:36:29.236Z,99060.19
2022-11-17T08:37:31.537Z,99054.28
2022-11-17T08:38:34.843Z,99062.06
2022-11-17T08:39:37.382Z,99064.38
2022-11-17T08:40:39.683Z,99062.81
2022-11-17T08:41:42.048Z,99063.91
2022-11-17T08:42:44.579Z,99065.81
2022-11-17T08:43:46.925Z,99070.88
2022-11-17T08:44:49.149Z,99067.97
2022-11-17T08:45:51.586Z,99069.69
2022-11-17T08:46:54.330Z,99071.34
2022-11-17T08:47:57.014Z,99074.09
2022-11-17T08:49:00.797Z,99081.28
2022-11-17T08:50:04.627Z,99081.66
2022-11-17T08:51:08.418Z,99080.19
2022-11-17T08:52:10.814Z,99076.19
2022-11-17T08:53:18.505Z,99076.41
2022-11-17T08:54:20.801Z,99081.75
2022-11-17T08:55:23.030Z,99081.34
2022-11-17T08:56:25.370Z,99082.84
2022-11-17T08:57:30.144Z,99088.88
2022-11-17T08:58:32.910Z,99085.97
2022-11-17T08:59:38.192Z,99089.44
2022-11-17T09:00:41.223Z,99092.91
2022-11-17T09:01:43.719Z,99085.69
2022-11-17T09:02:46.323Z,99093.06
2022-11-17T09:03:48.739Z,99093.91
2022-11-17T09:04:51.147Z,99101.81
2022-11-17T09:05:53.720Z,99097.72
2022-11-17T09:06:56.100Z,99096.84
2022-11-17T09:08:22.308Z,99098.91
2022-11-17T09:09:24.337Z,99095.56
2022-11-17T09:10:26.827Z,99096.69
2022-11-17T09:11:29.073Z,99098.50
2022-11-17T09:12:32.734Z,99101.88
2022-11-17T09:13:36.057Z,99098.00
2022-11-17T09:14:38.343Z,99102.25
2022-11-17T09:15:40.668Z,99099.31
2022-11-17T09:16:43.552Z,99105.88
2022-11-17T09:17:48.248Z,99100.97
2022-11-17T09:18:55.948Z,99099.47
2022-11-17T09:19:58.433Z,99099.84
2022-11-17T09:21:06.470Z,99105.00
2022-11-17T09:22:09.113Z,99104.72
2022-11-17T09:23:11.404Z,99105.13
2022-11-17T09:24:13.746Z,99105.53
2022-11-17T09:25:19.743Z,99101.41
2022-11-17T09:26:22.554Z,99112.00
2022-11-17T09:27:25.357Z,99112.66
2022-11-17T09:28:27.769Z,99117.19
2022-11-17T09:29:30.826Z,99117.66
2022-11-17T09:30:33.176Z,99119.22
2022-11-17T09:31:35.777Z,99115.72
2022-11-17T09:32:38.302Z,99112.66
2022-11-17T09:33:40.995Z,99112.25
2022-11-17T09:34:43.558Z,99112.63
2022-11-17T09:35:48.378Z,99113.72
2022-11-17T09:36:51.008Z,99113.78
2022-11-17T09:37:53.555Z,99121.06
2022-11-17T09:38:55.999Z,99113.50
2022-11-17T09:39:58.660Z,99120.28
2022-11-17T09:41:22.332Z,99119.81
2022-11-17T09:42:25.096Z,99119.09
2022-11-17T09:43:35.963Z,99112.66
2022-11-17T09:44:44.407Z,99121.75
2022-11-17T09:45:48.333Z,99118.25
2022-11-17T09:47:09.048Z,99120.38
2022-11-17T09:49:59.076Z,99117.66
2022-11-17T09:51:03.318Z,99116.63
2022-11-17T09:52:16.712Z,99113.19
2022-11-17T09:53:25.048Z,99117.72
2022-11-17T09:54:40.825Z,99110.53
2022-11-17T09:55:48.020Z,99104.59
2022-11-17T09:56:51.864Z,99110.53
2022-11-17T09:58:36.296Z,99115.81
2022-11-17T09:59:39.497Z,99114.41
2022-11-17T10:00:47.584Z,99110.25
2022-11-17T10:01:50.044Z,99114.13
2022-11-17T10:02:54.612Z,99116.03
2022-11-17T10:03:59.412Z,99117.72
2022-11-17T10:05:02.214Z,99116.50
2022-11-17T10:06:12.815Z,99121.28
2022-11-17T10:07:15.566Z,99122.72
2022-11-17T10:08:32.045Z,99124.66
2022-11-17T10:09:40.466Z,99122.72
2022-11-17T10:10:46.110Z,99133.81
2022-11-17T10:11:49.362Z,99129.56
2022-11-17T10:12:58.187Z,99130.19
2022-11-17T10:14:16.406Z,99132.53
2022-11-17T10:15:29.669Z,99128.41
2022-11-17T10:16:32.600Z,99128.00
2022-11-17T10:17:35.026Z,99138.63
2022-11-17T10:18:39.587Z,99139.59
2022-11-17T10:19:44.127Z,99133.25
2022-11-17T10:20:46.598Z,99132.88
2022-11-17T10:21:58.199Z,99132.59
2022-11-17T10:23:03.388Z,99128.44
2022-11-17T10:24:05.980Z,99134.59
2022-11-17T10:25:36.000Z,99122.38
2022-11-17T10:26:47.103Z,99127.47
2022-11-17T10:27:54.324Z,99133.25
2022-11-17T10:29:09.415Z,99129.91
2022-11-17T10:30:24.560Z,99132.81
2022-11-17T10:31:29.056Z,99129.19
2022-11-17T10:32:48.477Z,99135.03
2022-11-17T10:33:51.214Z,99133.94
2022-11-17T10:34:54.450Z,99132.53
2022-11-17T10:35:57.010Z,99135.88
2022-11-17T10:37:23.373Z,99136.63
2022-11-17T10:38:29.325Z,99131.38
2022-11-17T10:39:38.014Z,99133.66
2022-11-17T10:40:40.383Z,99136.44
2022-11-17T10:41:45.489Z,99127.69
2022-11-17T10:43:23.618Z,99137.97
2022-11-17T10:44:30.502Z,99140.25
2022-11-17T10:45:34.099Z,99139.19
2022-11-17T10:47:01.756Z,99136.50
2022-11-17T10:48:11.268Z,99134.91
2022-11-17T10:49:25.726Z,99133.38
2022-11-17T10:50:28.210Z,99127.84
2022-11-17T10:51:35.797Z,99134.78
2022-11-17T10:52:38.205Z,99130.09
2022-11-17T10:53:46.232Z,99127.13
2022-11-17T10:54:50.058Z,99138.28
2022-11-17T10:56:06.279Z,99139.41
2022-11-17T10:57:30.829Z,99135.59
2022-11-17T10:58:56.427Z,99139.72
2022-11-17T10:59:58.829Z,99142.00
2022-11-17T11:01:04.986Z,99137.84
2022-11-17T11:02:26.735Z,99149.13
2022-11-17T11:03:35.297Z,99146.25
2022-11-17T11:04:43.249Z,99135.50
2022-11-17T11:06:05.290Z,99144.38
2022-11-17T11:07:15.139Z,99142.63
2022-11-17T11:08:28.940Z,99135.59
2022-11-17T11:09:32.883Z,99136.28
2022-11-17T11:10:35.928Z,99140.34
2022-11-17T11:11:52.358Z,99135.72
2022-11-17T11:13:20.140Z,99140.16
2022-11-17T11:14:42.384Z,99142.88
2022-11-17T11:15:45.671Z,99143.19
2022-11-17T11:16:49.719Z,99143.66
2022-11-17T11:17:52.658Z,99150.97
2022-11-17T11:18:55.081Z,99154.69
2022-11-17T11:19:58.109Z,99152.97
2022-11-17T11:21:22.336Z,99149.09
2022-11-17T11:22:42.399Z,99158.22
2022-11-17T11:24:03.203Z,99155.25
2022-11-17T11:25:26.561Z,99153.84
2022-11-17T11:26:47.302Z,99149.44
2022-11-17T11:27:55.764Z,99151.75
2022-11-17T11:29:17.320Z,99148.13
2022-11-17T11:30:20.574Z,99153.16
2022-11-17T11:31:40.758Z,99149.63
2022-11-17T11:33:33.662Z,99152.59
2022-11-17T11:35:17.173Z,99148.34
2022-11-17T11:36:19.841Z,99152.06
2022-11-17T11:37:30.065Z,99151.09
2022-11-17T11:38:55.866Z,99161.69
2022-11-17T11:40:25.469Z,99154.28
2022-11-17T11:41:46.218Z,99165.78
2022-11-17T11:43:30.217Z,99159.25
2022-11-17T11:44:44.647Z,99164.25
2022-11-17T11:46:10.833Z,99163.97
2022-11-17T11:47:27.413Z,99165.56
2022-11-17T11:48:36.765Z,99168.28
2022-11-17T11:50:02.390Z,99175.06
2022-11-17T11:51:24.819Z,99177.13
2022-11-17T11:52:37.719Z,99170.91
2022-11-17T11:54:27.909Z,99175.38
2022-11-17T11:55:35.267Z,99179.97
2022-11-17T11:56:44.511Z,99178.25
2022-11-17T11:58:06.015Z,99186.41
2022-11-17T11:59:24.468Z,99186.31
2022-11-17T12:00:28.117Z,99186.97
2022-11-17T12:01:48.482Z,99191.53
2022-11-17T12:03:49.557Z,99188.75
2022-11-17T12:05:19.761Z,99189.94
2022-11-17T12:06:42.967Z,99187.72
2022-11-17T12:07:49.106Z,99192.25
2022-11-17T12:09:28.576Z,99189.13
2022-11-17T12:11:31.197Z,99187.03
2022-11-17T12:12:38.829Z,99187.50
2022-11-17T12:13:47.375Z,99189.56
2022-11-17T12:15:21.650Z,99193.78
2022-11-17T12:16:31.277Z,99194.66
2022-11-17T12:17:35.517Z,99194.97
2022-11-17T12:18:38.097Z,99195.75
2022-11-17T12:20:04.621Z,99192.56
2022-11-17T12:21:13.709Z,99192.88
2022-11-17T12:22:39.615Z,99191.75
2022-11-17T12:24:03.768Z,99193.78
2022-11-17T12:25:29.673Z,99196.97
2022-11-17T12:26:33.544Z,99198.06
2022-11-17T12:27:36.790Z,99199.09
2022-11-17T12:28:40.790Z,99196.63
2022-11-17T12:29:47.454Z,99201.44
2022-11-17T12:30:53.196Z,99200.44
2022-11-17T12:32:02.200Z,99196.97
2022-11-17T12:33:09.364Z,99201.53
2022-11-17T12:34:24.625Z,99197.59
2022-11-17T12:35:30.934Z,99191.88
2022-11-17T12:36:34.772Z,99194.81
2022-11-17T12:37:37.092Z,99200.84
2022-11-17T12:38:40.129Z,99203.22
2022-11-17T12:39:54.868Z,99203.28
2022-11-17T12:40:57.554Z,99205.84
2022-11-17T12:42:07.608Z,99202.28
2022-11-17T12:43:16.162Z,99202.06
2022-11-17T12:44:37.341Z,99208.28
2022-11-17T12:45:58.380Z,99205.31
2022-11-17T12:47:10.012Z,99202.94
2022-11-17T12:48:33.068Z,99210.81
2022-11-17T12:49:55.045Z,99214.97
2022-11-17T12:51:23.533Z,99208.47
2022-11-17T12:52:58.187Z,99215.84
2022-11-17T12:54:14.207Z,99211.88
2022-11-17T12:55:25.548Z,99213.56
2022-11-17T12:56:39.785Z,99220.19
2022-11-17T12:57:48.440Z,99221.38
2022-11-17T12:59:12.576Z,99214.91
2022-11-17T13:00:22.260Z,99218.31
2022-11-17T13:01:45.029Z,99222.06
2022-11-17T13:03:09.584Z,99220.38
2022-11-17T13:04:17.341Z,99229.44
2022-11-17T13:05:22.315Z,99228.06
2022-11-17T13:06:40.268Z,99225.66
2022-11-17T13:07:42.657Z,99226.38
2022-11-17T13:09:02.027Z,99228.06
2022-11-17T13:10:04.647Z,99225.59
2022-11-17T13:11:17.748Z,99218.91
2022-11-17T13:12:25.912Z,99217.38
2022-11-17T13:13:28.241Z,99226.88
2022-11-17T13:14:32.590Z,99221.78
2022-11-17T13:15:34.848Z,99221.13
2022-11-17T13:16:44.894Z,99225.06
2022-11-17T13:17:47.443Z,99223.81
2022-11-17T13:18:51.802Z,99227.88
2022-11-17T13:20:30.176Z,99222.66
2022-11-17T13:21:33.361Z,99230.22
2022-11-17T13:22:42.317Z,99231.69